sensor_id;sensor_type;location;lat;lon;timestamp;P1;durP1;ratioP1;P2;durP2;ratioP2
20671;SDS011;10495;50.922;4.760;2023-04-03T00:01:11;6.53;;;5.23;;
20671;SDS011;10495;50.922;4.760;2023-04-03T00:03:36;6.00;;;4.67;;
20671;SDS011;10495;50.922;4.760;2023-04-03T00:06:03;5.73;;;4.23;;
20671;SDS011;10495;50.922;4.760;2023-04-03T00:08:30;6.70;;;4.73;;
20671;SDS011;10495;50.922;4.760;2023-04-03T00:10:57;5.70;;;4.43;;
20671;SDS011;10495;50.922;4.760;2023-04-03T00:13:23;5.37;;;4.83;;
20671;SDS011;10495;50.922;4.760;2023-04-03T00:15:50;7.63;;;5.00;;
20671;SDS011;10495;50.922;4.760;2023-04-03T00:18:16;7.23;;;4.93;;
20671;SDS011;10495;50.922;4.760;2023-04-03T00:20:42;6.43;;;5.03;;
20671;SDS011;10495;50.922;4.760;2023-04-03T00:23:08;7.70;;;5.70;;
20671;SDS011;10495;50.922;4.760;2023-04-03T00:25:34;6.13;;;5.10;;
20671;SDS011;10495;50.922;4.760;2023-04-03T00:27:59;6.23;;;4.93;;
20671;SDS011;10495;50.922;4.760;2023-04-03T00:30:25;8.37;;;4.93;;
20671;SDS011;10495;50.922;4.760;2023-04-03T00:32:52;6.57;;;5.20;;
20671;SDS011;10495;50.922;4.760;2023-04-03T00:35:18;5.03;;;4.53;;
20671;SDS011;10495;50.922;4.760;2023-04-03T00:37:45;6.83;;;5.17;;
20671;SDS011;10495;50.922;4.760;2023-04-03T00:40:11;6.67;;;4.80;;
20671;SDS011;10495;50.922;4.760;2023-04-03T00:42:39;5.93;;;5.23;;
20671;SDS011;10495;50.922;4.760;2023-04-03T00:47:50;6.77;;;4.90;;
20671;SDS011;10495;50.922;4.760;2023-04-03T00:50:16;6.87;;;5.13;;
20671;SDS011;10495;50.922;4.760;2023-04-03T00:52:42;10.37;;;5.37;;
20671;SDS011;10495;50.922;4.760;2023-04-03T00:55:11;6.97;;;5.50;;
20671;SDS011;10495;50.922;4.760;2023-04-03T00:57:39;5.87;;;4.70;;
20671;SDS011;10495;50.922;4.760;2023-04-03T01:00:06;6.33;;;5.00;;
20671;SDS011;10495;50.922;4.760;2023-04-03T01:02:36;6.63;;;4.90;;
20671;SDS011;10495;50.922;4.760;2023-04-03T01:05:02;5.23;;;4.60;;
20671;SDS011;10495;50.922;4.760;2023-04-03T01:07:29;5.30;;;4.63;;
20671;SDS011;10495;50.922;4.760;2023-04-03T01:09:56;5.60;;;4.93;;
20671;SDS011;10495;50.922;4.760;2023-04-03T01:14:59;5.50;;;4.87;;
20671;SDS011;10495;50.922;4.760;2023-04-03T01:22:56;7.90;;;6.60;;
20671;SDS011;10495;50.922;4.760;2023-04-03T01:25:27;9.60;;;6.43;;
20671;SDS011;10495;50.922;4.760;2023-04-03T01:27:52;8.97;;;6.70;;
20671;SDS011;10495;50.922;4.760;2023-04-03T01:30:19;10.90;;;7.10;;
20671;SDS011;10495;50.922;4.760;2023-04-03T01:32:46;10.70;;;7.67;;
20671;SDS011;10495;50.922;4.760;2023-04-03T01:35:11;13.17;;;7.33;;
20671;SDS011;10495;50.922;4.760;2023-04-03T01:37:38;10.77;;;7.57;;
20671;SDS011;10495;50.922;4.760;2023-04-03T01:40:04;10.97;;;7.80;;
20671;SDS011;10495;50.922;4.760;2023-04-03T01:42:30;12.17;;;8.13;;
20671;SDS011;10495;50.922;4.760;2023-04-03T01:44:56;11.70;;;8.67;;
20671;SDS011;10495;50.922;4.760;2023-04-03T01:47:22;9.67;;;7.97;;
20671;SDS011;10495;50.922;4.760;2023-04-03T01:49:48;12.97;;;9.27;;
20671;SDS011;10495;50.922;4.760;2023-04-03T01:52:14;13.20;;;8.13;;
20671;SDS011;10495;50.922;4.760;2023-04-03T01:54:40;8.47;;;7.13;;
20671;SDS011;10495;50.922;4.760;2023-04-03T01:57:05;11.03;;;7.10;;
20671;SDS011;10495;50.922;4.760;2023-04-03T01:59:31;9.37;;;7.70;;
20671;SDS011;10495;50.922;4.760;2023-04-03T02:01:56;11.43;;;7.63;;
20671;SDS011;10495;50.922;4.760;2023-04-03T02:04:22;11.17;;;7.13;;
20671;SDS011;10495;50.922;4.760;2023-04-03T02:06:48;9.57;;;6.80;;
20671;SDS011;10495;50.922;4.760;2023-04-03T02:09:13;9.43;;;7.13;;
20671;SDS011;10495;50.922;4.760;2023-04-03T02:11:39;9.00;;;6.87;;
20671;SDS011;10495;50.922;4.760;2023-04-03T02:14:05;9.93;;;6.50;;
20671;SDS011;10495;50.922;4.760;2023-04-03T02:16:31;9.03;;;6.40;;
20671;SDS011;10495;50.922;4.760;2023-04-03T02:18:56;7.90;;;5.93;;
20671;SDS011;10495;50.922;4.760;2023-04-03T02:21:22;7.47;;;5.90;;
20671;SDS011;10495;50.922;4.760;2023-04-03T02:23:48;7.43;;;5.90;;
20671;SDS011;10495;50.922;4.760;2023-04-03T02:26:15;7.60;;;6.67;;
20671;SDS011;10495;50.922;4.760;2023-04-03T02:28:41;7.60;;;6.40;;
20671;SDS011;10495;50.922;4.760;2023-04-03T02:31:07;10.00;;;7.10;;
20671;SDS011;10495;50.922;4.760;2023-04-03T02:33:35;8.43;;;6.20;;
20671;SDS011;10495;50.922;4.760;2023-04-03T02:36:02;7.43;;;6.20;;
20671;SDS011;10495;50.922;4.760;2023-04-03T02:38:31;8.43;;;6.40;;
20671;SDS011;10495;50.922;4.760;2023-04-03T02:41:04;7.90;;;6.27;;
20671;SDS011;10495;50.922;4.760;2023-04-03T02:43:32;6.33;;;5.57;;
20671;SDS011;10495;50.922;4.760;2023-04-03T02:45:58;7.30;;;6.00;;
20671;SDS011;10495;50.922;4.760;2023-04-03T02:48:23;9.40;;;6.83;;
20671;SDS011;10495;50.922;4.760;2023-04-03T02:50:49;7.63;;;6.23;;
20671;SDS011;10495;50.922;4.760;2023-04-03T02:53:15;7.57;;;6.10;;
20671;SDS011;10495;50.922;4.760;2023-04-03T02:55:41;7.53;;;6.30;;
20671;SDS011;10495;50.922;4.760;2023-04-03T02:58:07;10.00;;;6.10;;
20671;SDS011;10495;50.922;4.760;2023-04-03T03:00:33;7.73;;;6.50;;
20671;SDS011;10495;50.922;4.760;2023-04-03T03:02:59;8.80;;;5.90;;
20671;SDS011;10495;50.922;4.760;2023-04-03T03:05:25;8.67;;;6.20;;
20671;SDS011;10495;50.922;4.760;2023-04-03T03:07:51;7.73;;;6.10;;
20671;SDS011;10495;50.922;4.760;2023-04-03T03:10:17;7.23;;;6.50;;
20671;SDS011;10495;50.922;4.760;2023-04-03T03:12:42;7.57;;;5.93;;
20671;SDS011;10495;50.922;4.760;2023-04-03T03:15:08;9.37;;;6.40;;
20671;SDS011;10495;50.922;4.760;2023-04-03T03:17:34;8.40;;;6.33;;
20671;SDS011;10495;50.922;4.760;2023-04-03T03:20:01;8.70;;;7.07;;
20671;SDS011;10495;50.922;4.760;2023-04-03T03:22:27;9.60;;;6.27;;
20671;SDS011;10495;50.922;4.760;2023-04-03T03:24:53;8.13;;;6.07;;
20671;SDS011;10495;50.922;4.760;2023-04-03T03:27:19;6.83;;;6.10;;
20671;SDS011;10495;50.922;4.760;2023-04-03T03:29:45;9.30;;;6.47;;
20671;SDS011;10495;50.922;4.760;2023-04-03T03:32:11;9.73;;;6.70;;
20671;SDS011;10495;50.922;4.760;2023-04-03T03:34:37;8.10;;;6.03;;
20671;SDS011;10495;50.922;4.760;2023-04-03T03:37:03;9.80;;;6.70;;
20671;SDS011;10495;50.922;4.760;2023-04-03T03:39:28;8.83;;;6.23;;
20671;SDS011;10495;50.922;4.760;2023-04-03T03:41:54;7.50;;;6.30;;
20671;SDS011;10495;50.922;4.760;2023-04-03T03:44:20;8.63;;;5.90;;
20671;SDS011;10495;50.922;4.760;2023-04-03T03:46:46;7.73;;;6.40;;
20671;SDS011;10495;50.922;4.760;2023-04-03T03:49:11;7.77;;;6.60;;
20671;SDS011;10495;50.922;4.760;2023-04-03T03:51:37;8.40;;;6.60;;
20671;SDS011;10495;50.922;4.760;2023-04-03T03:54:04;7.73;;;6.47;;
20671;SDS011;10495;50.922;4.760;2023-04-03T03:56:30;7.87;;;6.57;;
20671;SDS011;10495;50.922;4.760;2023-04-03T03:58:56;8.83;;;7.13;;
20671;SDS011;10495;50.922;4.760;2023-04-03T04:01:22;9.10;;;7.23;;
20671;SDS011;10495;50.922;4.760;2023-04-03T04:03:48;7.50;;;6.33;;
20671;SDS011;10495;50.922;4.760;2023-04-03T04:06:16;8.90;;;6.57;;
20671;SDS011;10495;50.922;4.760;2023-04-03T04:08:42;8.37;;;6.70;;
20671;SDS011;10495;50.922;4.760;2023-04-03T04:11:08;11.13;;;8.17;;
20671;SDS011;10495;50.922;4.760;2023-04-03T04:13:34;9.00;;;7.27;;
20671;SDS011;10495;50.922;4.760;2023-04-03T04:16:00;8.60;;;6.80;;
20671;SDS011;10495;50.922;4.760;2023-04-03T04:18:25;8.13;;;6.77;;
20671;SDS011;10495;50.922;4.760;2023-04-03T04:20:51;7.63;;;6.63;;
20671;SDS011;10495;50.922;4.760;2023-04-03T04:23:17;10.53;;;6.70;;
20671;SDS011;10495;50.922;4.760;2023-04-03T04:25:46;9.60;;;6.93;;
20671;SDS011;10495;50.922;4.760;2023-04-03T04:28:13;10.53;;;7.60;;
20671;SDS011;10495;50.922;4.760;2023-04-03T04:30:38;8.37;;;6.90;;
20671;SDS011;10495;50.922;4.760;2023-04-03T04:33:04;9.77;;;7.50;;
20671;SDS011;10495;50.922;4.760;2023-04-03T04:35:30;9.70;;;7.57;;
20671;SDS011;10495;50.922;4.760;2023-04-03T04:37:56;8.20;;;6.50;;
20671;SDS011;10495;50.922;4.760;2023-04-03T04:40:21;11.23;;;7.60;;
20671;SDS011;10495;50.922;4.760;2023-04-03T04:42:47;9.63;;;7.47;;
20671;SDS011;10495;50.922;4.760;2023-04-03T04:45:13;13.63;;;8.50;;
20671;SDS011;10495;50.922;4.760;2023-04-03T04:47:39;9.83;;;6.90;;
20671;SDS011;10495;50.922;4.760;2023-04-03T04:50:06;11.53;;;8.57;;
20671;SDS011;10495;50.922;4.760;2023-04-03T04:52:32;10.80;;;7.63;;
20671;SDS011;10495;50.922;4.760;2023-04-03T04:54:57;9.80;;;7.60;;
20671;SDS011;10495;50.922;4.760;2023-04-03T04:57:23;10.47;;;7.67;;
20671;SDS011;10495;50.922;4.760;2023-04-03T04:59:49;10.27;;;7.83;;
20671;SDS011;10495;50.922;4.760;2023-04-03T05:02:14;12.20;;;7.77;;
20671;SDS011;10495;50.922;4.760;2023-04-03T05:04:40;10.83;;;7.80;;
20671;SDS011;10495;50.922;4.760;2023-04-03T05:07:06;10.27;;;7.80;;
20671;SDS011;10495;50.922;4.760;2023-04-03T05:09:31;12.50;;;8.33;;
20671;SDS011;10495;50.922;4.760;2023-04-03T05:11:57;8.83;;;7.63;;
20671;SDS011;10495;50.922;4.760;2023-04-03T05:14:22;9.33;;;7.70;;
20671;SDS011;10495;50.922;4.760;2023-04-03T05:16:48;8.17;;;7.13;;
20671;SDS011;10495;50.922;4.760;2023-04-03T05:19:17;9.00;;;7.00;;
20671;SDS011;10495;50.922;4.760;2023-04-03T05:21:43;8.93;;;7.13;;
20671;SDS011;10495;50.922;4.760;2023-04-03T05:24:09;8.90;;;7.50;;
20671;SDS011;10495;50.922;4.760;2023-04-03T05:26:34;10.03;;;6.93;;
20671;SDS011;10495;50.922;4.760;2023-04-03T05:29:00;10.13;;;7.77;;
20671;SDS011;10495;50.922;4.760;2023-04-03T05:31:26;10.20;;;8.23;;
20671;SDS011;10495;50.922;4.760;2023-04-03T05:33:54;10.87;;;8.43;;
20671;SDS011;10495;50.922;4.760;2023-04-03T05:36:20;9.97;;;7.67;;
20671;SDS011;10495;50.922;4.760;2023-04-03T05:38:46;9.23;;;7.53;;
20671;SDS011;10495;50.922;4.760;2023-04-03T05:41:12;10.17;;;7.50;;
20671;SDS011;10495;50.922;4.760;2023-04-03T05:43:38;9.47;;;7.50;;
20671;SDS011;10495;50.922;4.760;2023-04-03T05:46:08;11.77;;;7.93;;
20671;SDS011;10495;50.922;4.760;2023-04-03T05:48:41;10.90;;;8.30;;
20671;SDS011;10495;50.922;4.760;2023-04-03T05:51:09;13.57;;;8.17;;
20671;SDS011;10495;50.922;4.760;2023-04-03T05:53:40;10.97;;;8.00;;
20671;SDS011;10495;50.922;4.760;2023-04-03T05:56:08;9.20;;;7.40;;
20671;SDS011;10495;50.922;4.760;2023-04-03T05:58:33;14.90;;;8.60;;
20671;SDS011;10495;50.922;4.760;2023-04-03T06:00:59;10.00;;;8.43;;
20671;SDS011;10495;50.922;4.760;2023-04-03T06:03:24;13.67;;;9.90;;
20671;SDS011;10495;50.922;4.760;2023-04-03T06:05:51;11.67;;;9.60;;
20671;SDS011;10495;50.922;4.760;2023-04-03T06:08:16;13.63;;;9.27;;
20671;SDS011;10495;50.922;4.760;2023-04-03T06:10:42;12.33;;;9.30;;
20671;SDS011;10495;50.922;4.760;2023-04-03T06:13:07;19.50;;;11.97;;
20671;SDS011;10495;50.922;4.760;2023-04-03T06:15:33;17.00;;;12.57;;
20671;SDS011;10495;50.922;4.760;2023-04-03T06:17:59;18.97;;;12.93;;
20671;SDS011;10495;50.922;4.760;2023-04-03T06:20:25;16.73;;;12.47;;
20671;SDS011;10495;50.922;4.760;2023-04-03T06:22:50;20.27;;;13.77;;
20671;SDS011;10495;50.922;4.760;2023-04-03T06:25:16;17.77;;;12.93;;
20671;SDS011;10495;50.922;4.760;2023-04-03T06:27:43;16.50;;;12.63;;
20671;SDS011;10495;50.922;4.760;2023-04-03T06:30:10;15.43;;;12.00;;
20671;SDS011;10495;50.922;4.760;2023-04-03T06:32:36;18.30;;;12.80;;
20671;SDS011;10495;50.922;4.760;2023-04-03T06:35:02;14.57;;;10.67;;
20671;SDS011;10495;50.922;4.760;2023-04-03T06:37:28;16.97;;;11.53;;
20671;SDS011;10495;50.922;4.760;2023-04-03T06:39:55;14.87;;;11.07;;
20671;SDS011;10495;50.922;4.760;2023-04-03T06:42:21;13.50;;;10.80;;
20671;SDS011;10495;50.922;4.760;2023-04-03T06:44:47;15.10;;;10.50;;
20671;SDS011;10495;50.922;4.760;2023-04-03T06:47:13;16.10;;;9.90;;
20671;SDS011;10495;50.922;4.760;2023-04-03T06:49:39;14.17;;;10.77;;
20671;SDS011;10495;50.922;4.760;2023-04-03T06:52:06;12.80;;;10.00;;
20671;SDS011;10495;50.922;4.760;2023-04-03T06:54:32;11.80;;;9.17;;
20671;SDS011;10495;50.922;4.760;2023-04-03T06:56:58;12.20;;;9.67;;
20671;SDS011;10495;50.922;4.760;2023-04-03T06:59:24;12.37;;;8.57;;
20671;SDS011;10495;50.922;4.760;2023-04-03T07:01:50;12.30;;;9.13;;
20671;SDS011;10495;50.922;4.760;2023-04-03T07:04:16;12.73;;;9.50;;
20671;SDS011;10495;50.922;4.760;2023-04-03T07:06:42;9.47;;;8.33;;
20671;SDS011;10495;50.922;4.760;2023-04-03T07:09:07;13.33;;;9.27;;
20671;SDS011;10495;50.922;4.760;2023-04-03T07:11:34;14.03;;;8.60;;
20671;SDS011;10495;50.922;4.760;2023-04-03T07:14:01;9.67;;;7.83;;
20671;SDS011;10495;50.922;4.760;2023-04-03T07:16:27;13.00;;;8.40;;
20671;SDS011;10495;50.922;4.760;2023-04-03T07:18:55;11.30;;;8.37;;
20671;SDS011;10495;50.922;4.760;2023-04-03T07:21:22;9.37;;;8.10;;
20671;SDS011;10495;50.922;4.760;2023-04-03T07:23:48;10.00;;;7.97;;
20671;SDS011;10495;50.922;4.760;2023-04-03T07:26:14;12.77;;;7.97;;
20671;SDS011;10495;50.922;4.760;2023-04-03T07:28:39;10.40;;;8.30;;
20671;SDS011;10495;50.922;4.760;2023-04-03T07:31:07;12.80;;;7.83;;
20671;SDS011;10495;50.922;4.760;2023-04-03T07:33:37;12.53;;;7.77;;
20671;SDS011;10495;50.922;4.760;2023-04-03T07:36:03;10.60;;;7.13;;
20671;SDS011;10495;50.922;4.760;2023-04-03T07:38:29;9.70;;;7.43;;
20671;SDS011;10495;50.922;4.760;2023-04-03T07:40:55;8.83;;;6.70;;
20671;SDS011;10495;50.922;4.760;2023-04-03T07:43:21;9.60;;;6.90;;
20671;SDS011;10495;50.922;4.760;2023-04-03T07:45:47;10.27;;;6.60;;
20671;SDS011;10495;50.922;4.760;2023-04-03T07:48:15;10.40;;;7.47;;
20671;SDS011;10495;50.922;4.760;2023-04-03T07:50:42;10.40;;;6.80;;
20671;SDS011;10495;50.922;4.760;2023-04-03T07:53:08;7.07;;;6.00;;
20671;SDS011;10495;50.922;4.760;2023-04-03T07:55:34;6.90;;;5.50;;
20671;SDS011;10495;50.922;4.760;2023-04-03T07:58:07;9.83;;;6.27;;
20671;SDS011;10495;50.922;4.760;2023-04-03T08:00:37;7.43;;;5.70;;
20671;SDS011;10495;50.922;4.760;2023-04-03T08:03:03;9.80;;;5.70;;
20671;SDS011;10495;50.922;4.760;2023-04-03T08:05:28;7.97;;;5.40;;
20671;SDS011;10495;50.922;4.760;2023-04-03T08:07:54;8.00;;;5.87;;
20671;SDS011;10495;50.922;4.760;2023-04-03T08:10:20;5.83;;;4.87;;
20671;SDS011;10495;50.922;4.760;2023-04-03T08:12:46;10.00;;;5.70;;
20671;SDS011;10495;50.922;4.760;2023-04-03T08:15:12;9.87;;;5.00;;
20671;SDS011;10495;50.922;4.760;2023-04-03T08:17:38;8.73;;;4.90;;
20671;SDS011;10495;50.922;4.760;2023-04-03T08:20:04;6.90;;;4.70;;
20671;SDS011;10495;50.922;4.760;2023-04-03T08:22:32;5.57;;;4.60;;
20671;SDS011;10495;50.922;4.760;2023-04-03T08:24:58;9.20;;;4.97;;
20671;SDS011;10495;50.922;4.760;2023-04-03T08:27:24;5.00;;;4.13;;
20671;SDS011;10495;50.922;4.760;2023-04-03T08:29:49;7.10;;;4.80;;
20671;SDS011;10495;50.922;4.760;2023-04-03T08:32:16;9.40;;;4.67;;
20671;SDS011;10495;50.922;4.760;2023-04-03T08:34:42;8.93;;;5.00;;
20671;SDS011;10495;50.922;4.760;2023-04-03T08:37:08;4.50;;;4.10;;
20671;SDS011;10495;50.922;4.760;2023-04-03T08:39:34;7.13;;;4.27;;
20671;SDS011;10495;50.922;4.760;2023-04-03T08:42:01;4.97;;;3.73;;
20671;SDS011;10495;50.922;4.760;2023-04-03T08:49:47;4.80;;;3.67;;
20671;SDS011;10495;50.922;4.760;2023-04-03T08:55:04;6.27;;;3.40;;
20671;SDS011;10495;50.922;4.760;2023-04-03T08:57:51;5.50;;;3.70;;
20671;SDS011;10495;50.922;4.760;2023-04-03T09:00:25;5.77;;;3.20;;
20671;SDS011;10495;50.922;4.760;2023-04-03T09:02:55;7.03;;;3.37;;
20671;SDS011;10495;50.922;4.760;2023-04-03T09:08:12;8.97;;;3.53;;
20671;SDS011;10495;50.922;4.760;2023-04-03T09:10:46;6.37;;;3.30;;
20671;SDS011;10495;50.922;4.760;2023-04-03T09:13:30;4.77;;;2.90;;
20671;SDS011;10495;50.922;4.760;2023-04-03T09:16:25;4.73;;;2.60;;
20671;SDS011;10495;50.922;4.760;2023-04-03T09:21:49;4.87;;;2.90;;
20671;SDS011;10495;50.922;4.760;2023-04-03T09:24:15;4.33;;;2.90;;
20671;SDS011;10495;50.922;4.760;2023-04-03T09:26:44;5.07;;;3.20;;
20671;SDS011;10495;50.922;4.760;2023-04-03T09:29:19;3.80;;;2.93;;
20671;SDS011;10495;50.922;4.760;2023-04-03T09:31:48;6.97;;;3.33;;
20671;SDS011;10495;50.922;4.760;2023-04-03T09:34:28;5.73;;;3.43;;
20671;SDS011;10495;50.922;4.760;2023-04-03T09:36:58;5.17;;;3.20;;
20671;SDS011;10495;50.922;4.760;2023-04-03T09:39:30;6.63;;;3.00;;
20671;SDS011;10495;50.922;4.760;2023-04-03T09:42:01;9.67;;;3.80;;
20671;SDS011;10495;50.922;4.760;2023-04-03T09:44:55;4.43;;;2.93;;
20671;SDS011;10495;50.922;4.760;2023-04-03T09:47:24;3.30;;;2.87;;
20671;SDS011;10495;50.922;4.760;2023-04-03T09:52:45;5.20;;;2.43;;
20671;SDS011;10495;50.922;4.760;2023-04-03T09:55:26;5.73;;;2.60;;
20671;SDS011;10495;50.922;4.760;2023-04-03T09:57:54;9.20;;;3.27;;
20671;SDS011;10495;50.922;4.760;2023-04-03T10:00:26;5.17;;;2.90;;
20671;SDS011;10495;50.922;4.760;2023-04-03T10:02:58;3.70;;;2.50;;
20671;SDS011;10495;50.922;4.760;2023-04-03T10:05:34;3.83;;;2.30;;
20671;SDS011;10495;50.922;4.760;2023-04-03T10:10:41;5.43;;;2.47;;
20671;SDS011;10495;50.922;4.760;2023-04-03T10:13:12;7.77;;;2.50;;
20671;SDS011;10495;50.922;4.760;2023-04-03T10:15:42;6.50;;;2.80;;
20671;SDS011;10495;50.922;4.760;2023-04-03T10:24:11;5.93;;;2.53;;
20671;SDS011;10495;50.922;4.760;2023-04-03T10:27:09;3.27;;;1.83;;
20671;SDS011;10495;50.922;4.760;2023-04-03T10:32:25;7.70;;;1.93;;
20671;SDS011;10495;50.922;4.760;2023-04-03T10:35:31;3.73;;;1.67;;
20671;SDS011;10495;50.922;4.760;2023-04-03T10:46:53;3.93;;;2.07;;
20671;SDS011;10495;50.922;4.760;2023-04-03T10:49:49;5.47;;;2.40;;
20671;SDS011;10495;50.922;4.760;2023-04-03T10:52:46;3.23;;;2.00;;
20671;SDS011;10495;50.922;4.760;2023-04-03T10:55:40;2.90;;;1.70;;
20671;SDS011;10495;50.922;4.760;2023-04-03T10:58:28;4.77;;;2.17;;
20671;SDS011;10495;50.922;4.760;2023-04-03T11:01:00;4.00;;;2.37;;
20671;SDS011;10495;50.922;4.760;2023-04-03T11:03:38;2.70;;;1.90;;
20671;SDS011;10495;50.922;4.760;2023-04-03T11:06:11;4.40;;;2.00;;
20671;SDS011;10495;50.922;4.760;2023-04-03T11:11:32;3.03;;;1.80;;
20671;SDS011;10495;50.922;4.760;2023-04-03T11:20:00;3.73;;;1.80;;
20671;SDS011;10495;50.922;4.760;2023-04-03T11:22:27;1.50;;;1.20;;
20671;SDS011;10495;50.922;4.760;2023-04-03T11:25:22;2.37;;;1.43;;
20671;SDS011;10495;50.922;4.760;2023-04-03T11:33:05;4.60;;;1.60;;
20671;SDS011;10495;50.922;4.760;2023-04-03T11:35:59;5.23;;;1.40;;
20671;SDS011;10495;50.922;4.760;2023-04-03T11:38:33;4.77;;;1.53;;
20671;SDS011;10495;50.922;4.760;2023-04-03T11:41:04;3.73;;;1.67;;
20671;SDS011;10495;50.922;4.760;2023-04-03T11:43:32;5.80;;;1.70;;
20671;SDS011;10495;50.922;4.760;2023-04-03T11:45:59;1.73;;;1.40;;
20671;SDS011;10495;50.922;4.760;2023-04-03T11:50:54;1.67;;;1.33;;
20671;SDS011;10495;50.922;4.760;2023-04-03T12:04:20;3.30;;;1.80;;
20671;SDS011;10495;50.922;4.760;2023-04-03T12:06:50;2.87;;;1.40;;
20671;SDS011;10495;50.922;4.760;2023-04-03T12:14:54;3.20;;;1.70;;
20671;SDS011;10495;50.922;4.760;2023-04-03T12:17:22;2.67;;;1.60;;
20671;SDS011;10495;50.922;4.760;2023-04-03T12:19:51;2.50;;;1.27;;
20671;SDS011;10495;50.922;4.760;2023-04-03T12:22:18;4.03;;;2.07;;
20671;SDS011;10495;50.922;4.760;2023-04-03T12:24:46;2.37;;;1.43;;
20671;SDS011;10495;50.922;4.760;2023-04-03T12:27:27;1.87;;;1.57;;
20671;SDS011;10495;50.922;4.760;2023-04-03T12:32:40;2.13;;;1.40;;
20671;SDS011;10495;50.922;4.760;2023-04-03T12:35:47;2.50;;;1.67;;
20671;SDS011;10495;50.922;4.760;2023-04-03T12:43:30;2.87;;;1.60;;
20671;SDS011;10495;50.922;4.760;2023-04-03T12:46:21;3.33;;;2.13;;
20671;SDS011;10495;50.922;4.760;2023-04-03T12:48:52;2.07;;;1.57;;
20671;SDS011;10495;50.922;4.760;2023-04-03T12:54:13;2.13;;;1.80;;
20671;SDS011;10495;50.922;4.760;2023-04-03T12:59:44;2.67;;;1.80;;
20671;SDS011;10495;50.922;4.760;2023-04-03T13:02:19;3.43;;;2.07;;
20671;SDS011;10495;50.922;4.760;2023-04-03T13:04:54;3.70;;;2.00;;
20671;SDS011;10495;50.922;4.760;2023-04-03T13:07:29;3.67;;;1.70;;
20671;SDS011;10495;50.922;4.760;2023-04-03T13:09:59;5.13;;;1.80;;
20671;SDS011;10495;50.922;4.760;2023-04-03T13:12:28;4.00;;;1.90;;
20671;SDS011;10495;50.922;4.760;2023-04-03T13:14:55;2.47;;;1.63;;
20671;SDS011;10495;50.922;4.760;2023-04-03T13:17:23;3.57;;;1.90;;
20671;SDS011;10495;50.922;4.760;2023-04-03T13:19:51;3.70;;;2.20;;
20671;SDS011;10495;50.922;4.760;2023-04-03T13:24:54;2.10;;;1.40;;
20671;SDS011;10495;50.922;4.760;2023-04-03T13:27:21;2.17;;;1.50;;
20671;SDS011;10495;50.922;4.760;2023-04-03T13:29:51;3.53;;;1.90;;
20671;SDS011;10495;50.922;4.760;2023-04-03T13:32:23;4.60;;;1.87;;
20671;SDS011;10495;50.922;4.760;2023-04-03T13:34:51;3.23;;;1.90;;
20671;SDS011;10495;50.922;4.760;2023-04-03T13:40:23;3.60;;;1.57;;
20671;SDS011;10495;50.922;4.760;2023-04-03T13:42:42;3.47;;;1.60;;
20671;SDS011;10495;50.922;4.760;2023-04-03T13:47:49;4.67;;;1.53;;
20671;SDS011;10495;50.922;4.760;2023-04-03T13:50:20;4.20;;;1.73;;
20671;SDS011;10495;50.922;4.760;2023-04-03T13:52:54;3.03;;;1.60;;
20671;SDS011;10495;50.922;4.760;2023-04-03T13:55:29;2.80;;;1.70;;
20671;SDS011;10495;50.922;4.760;2023-04-03T14:03:16;4.77;;;1.77;;
20671;SDS011;10495;50.922;4.760;2023-04-03T14:05:49;2.70;;;1.47;;
20671;SDS011;10495;50.922;4.760;2023-04-03T14:08:16;1.63;;;1.50;;
20671;SDS011;10495;50.922;4.760;2023-04-03T14:10:42;4.03;;;1.60;;
20671;SDS011;10495;50.922;4.760;2023-04-03T14:13:11;2.47;;;1.43;;
20671;SDS011;10495;50.922;4.760;2023-04-03T14:15:39;3.00;;;1.50;;
20671;SDS011;10495;50.922;4.760;2023-04-03T14:18:05;3.17;;;1.33;;
20671;SDS011;10495;50.922;4.760;2023-04-03T14:20:30;2.73;;;1.37;;
20671;SDS011;10495;50.922;4.760;2023-04-03T14:22:56;2.97;;;1.37;;
20671;SDS011;10495;50.922;4.760;2023-04-03T14:25:22;5.60;;;1.70;;
20671;SDS011;10495;50.922;4.760;2023-04-03T14:27:51;2.57;;;1.47;;
20671;SDS011;10495;50.922;4.760;2023-04-03T14:30:26;2.60;;;1.37;;
20671;SDS011;10495;50.922;4.760;2023-04-03T14:32:56;5.30;;;2.33;;
20671;SDS011;10495;50.922;4.760;2023-04-03T14:35:22;2.90;;;1.60;;
20671;SDS011;10495;50.922;4.760;2023-04-03T14:37:49;2.57;;;1.63;;
20671;SDS011;10495;50.922;4.760;2023-04-03T14:40:21;3.70;;;1.80;;
20671;SDS011;10495;50.922;4.760;2023-04-03T14:42:49;4.23;;;1.90;;
20671;SDS011;10495;50.922;4.760;2023-04-03T14:45:15;5.43;;;1.60;;
20671;SDS011;10495;50.922;4.760;2023-04-03T14:48:02;4.13;;;1.60;;
20671;SDS011;10495;50.922;4.760;2023-04-03T14:50:28;1.90;;;1.60;;
20671;SDS011;10495;50.922;4.760;2023-04-03T14:52:55;5.00;;;1.70;;
20671;SDS011;10495;50.922;4.760;2023-04-03T14:55:23;4.77;;;1.63;;
20671;SDS011;10495;50.922;4.760;2023-04-03T14:57:50;3.37;;;2.10;;
20671;SDS011;10495;50.922;4.760;2023-04-03T15:00:19;4.17;;;2.10;;
20671;SDS011;10495;50.922;4.760;2023-04-03T15:02:45;4.50;;;2.23;;
20671;SDS011;10495;50.922;4.760;2023-04-03T15:05:12;3.60;;;2.00;;
20671;SDS011;10495;50.922;4.760;2023-04-03T15:07:49;2.73;;;1.70;;
20671;SDS011;10495;50.922;4.760;2023-04-03T15:10:22;2.90;;;1.70;;
20671;SDS011;10495;50.922;4.760;2023-04-03T15:12:50;3.83;;;1.80;;
20671;SDS011;10495;50.922;4.760;2023-04-03T15:15:17;5.27;;;2.20;;
20671;SDS011;10495;50.922;4.760;2023-04-03T15:17:45;2.77;;;1.70;;
20671;SDS011;10495;50.922;4.760;2023-04-03T15:20:16;2.03;;;1.70;;
20671;SDS011;10495;50.922;4.760;2023-04-03T15:22:45;4.33;;;2.00;;
20671;SDS011;10495;50.922;4.760;2023-04-03T15:25:11;4.53;;;2.17;;
20671;SDS011;10495;50.922;4.760;2023-04-03T15:27:37;2.57;;;1.83;;
20671;SDS011;10495;50.922;4.760;2023-04-03T15:30:05;4.63;;;2.30;;
20671;SDS011;10495;50.922;4.760;2023-04-03T15:32:32;5.10;;;2.00;;
20671;SDS011;10495;50.922;4.760;2023-04-03T15:34:59;4.60;;;2.10;;
20671;SDS011;10495;50.922;4.760;2023-04-03T15:37:25;2.73;;;1.93;;
20671;SDS011;10495;50.922;4.760;2023-04-03T15:39:51;2.50;;;1.90;;
20671;SDS011;10495;50.922;4.760;2023-04-03T15:42:16;5.53;;;2.33;;
20671;SDS011;10495;50.922;4.760;2023-04-03T15:44:42;3.70;;;2.03;;
20671;SDS011;10495;50.922;4.760;2023-04-03T15:47:07;3.60;;;1.80;;
20671;SDS011;10495;50.922;4.760;2023-04-03T15:49:33;5.40;;;2.20;;
20671;SDS011;10495;50.922;4.760;2023-04-03T15:51:59;3.27;;;2.07;;
20671;SDS011;10495;50.922;4.760;2023-04-03T15:54:26;3.67;;;2.23;;
20671;SDS011;10495;50.922;4.760;2023-04-03T15:56:52;4.47;;;2.10;;
20671;SDS011;10495;50.922;4.760;2023-04-03T15:59:18;3.60;;;1.90;;
20671;SDS011;10495;50.922;4.760;2023-04-03T16:01:44;7.67;;;2.50;;
20671;SDS011;10495;50.922;4.760;2023-04-03T16:04:10;5.37;;;2.30;;
20671;SDS011;10495;50.922;4.760;2023-04-03T16:06:37;4.83;;;2.17;;
20671;SDS011;10495;50.922;4.760;2023-04-03T16:09:04;4.87;;;2.03;;
20671;SDS011;10495;50.922;4.760;2023-04-03T16:11:30;4.13;;;2.00;;
20671;SDS011;10495;50.922;4.760;2023-04-03T16:13:56;3.77;;;2.00;;
20671;SDS011;10495;50.922;4.760;2023-04-03T16:16:22;5.13;;;2.87;;
20671;SDS011;10495;50.922;4.760;2023-04-03T16:18:48;4.87;;;2.27;;
20671;SDS011;10495;50.922;4.760;2023-04-03T16:21:14;6.33;;;2.10;;
20671;SDS011;10495;50.922;4.760;2023-04-03T16:23:41;5.83;;;1.97;;
20671;SDS011;10495;50.922;4.760;2023-04-03T16:26:08;2.43;;;2.10;;
20671;SDS011;10495;50.922;4.760;2023-04-03T16:28:33;4.53;;;2.20;;
20671;SDS011;10495;50.922;4.760;2023-04-03T16:31:00;2.63;;;1.90;;
20671;SDS011;10495;50.922;4.760;2023-04-03T16:33:26;3.23;;;2.07;;
20671;SDS011;10495;50.922;4.760;2023-04-03T16:35:53;2.23;;;1.70;;
20671;SDS011;10495;50.922;4.760;2023-04-03T16:38:18;3.03;;;2.03;;